createdAt,value
2023-04-18T00:00:21.663Z,92.6118
2023-04-18T00:01:29.781Z,92.2282
2023-04-18T00:02:38.003Z,92.5252
2023-04-18T00:03:46.080Z,92.1330
2023-04-18T00:04:54.032Z,91.7020
2023-04-18T00:06:01.845Z,91.3344
2023-04-18T00:07:10.076Z,91.9259
2023-04-18T00:08:17.968Z,92.0222
2023-04-18T00:09:26.378Z,90.9387
2023-04-18T00:10:34.230Z,90.8859
2023-04-18T00:11:42.148Z,91.0807
2023-04-18T00:12:50.402Z,91.4356
2023-04-18T00:13:58.460Z,90.2076
2023-04-18T00:15:06.463Z,89.6325
2023-04-18T00:16:14.593Z,88.3685
2023-04-18T00:17:22.696Z,87.9708
2023-04-18T00:18:30.704Z,89.3847
2023-04-18T00:19:38.780Z,88.3363
2023-04-18T00:20:46.782Z,89.0226
2023-04-18T00:21:54.847Z,88.3592
2023-04-18T00:23:02.767Z,88.8198
2023-04-18T00:24:11.052Z,87.4839
2023-04-18T00:25:18.907Z,87.7397
2023-04-18T00:26:27.231Z,89.2667
2023-04-18T00:27:35.159Z,89.8881
2023-04-18T00:28:43.415Z,88.4080
2023-04-18T00:29:51.305Z,88.3148
2023-04-18T00:30:59.357Z,86.8730
2023-04-18T00:32:07.433Z,87.6787
2023-04-18T00:33:15.482Z,88.0242
2023-04-18T00:34:23.625Z,88.8776
2023-04-18T00:35:31.547Z,87.9544
2023-04-18T00:36:39.687Z,87.4866
2023-04-18T00:37:47.739Z,89.2955
2023-04-18T00:38:55.982Z,89.5137
2023-04-18T00:40:03.730Z,89.5577
2023-04-18T00:41:11.910Z,88.8337
2023-04-18T00:42:19.887Z,87.9277
2023-04-18T00:43:28.321Z,87.0223
2023-04-18T00:44:36.155Z,86.5220
2023-04-18T00:45:44.201Z,87.1244
2023-04-18T00:46:52.263Z,87.5310
2023-04-18T00:48:00.391Z,86.5543
2023-04-18T00:49:08.355Z,87.3058
2023-04-18T00:50:16.449Z,87.3164
2023-04-18T00:51:24.566Z,87.2480
2023-04-18T00:52:32.535Z,85.9189
2023-04-18T00:53:40.663Z,86.7591
2023-04-18T00:54:48.702Z,87.1499
2023-04-18T00:55:56.850Z,86.7421
2023-04-18T00:57:04.687Z,86.9633
2023-04-18T00:58:12.871Z,87.2484
2023-04-18T00:59:21.009Z,86.5924
2023-04-18T01:00:29.058Z,85.7436
2023-04-18T01:01:37.141Z,85.9152
2023-04-18T01:02:45.313Z,86.2281
2023-04-18T01:03:53.353Z,85.7684
2023-04-18T01:05:01.496Z,87.4274
2023-04-18T01:06:09.329Z,87.6725
2023-04-18T01:07:17.518Z,87.3928
2023-04-18T01:08:25.362Z,86.7893
2023-04-18T01:09:33.564Z,88.2203
2023-04-18T01:10:41.761Z,88.2790
2023-04-18T01:11:49.683Z,87.5845
2023-04-18T01:12:57.903Z,87.7878
2023-04-18T01:14:05.804Z,89.0126
2023-04-18T01:15:14.186Z,88.7220
2023-04-18T01:16:21.888Z,88.3964
2023-04-18T01:17:30.186Z,87.6127
2023-04-18T01:18:38.095Z,88.1777
2023-04-18T01:19:46.114Z,89.3538
2023-04-18T01:20:54.211Z,89.0389
2023-04-18T01:22:02.366Z,88.5419
2023-04-18T01:23:10.184Z,87.8160
2023-04-18T01:24:18.379Z,87.2471
2023-04-18T01:25:26.538Z,86.5687
2023-04-18T01:26:34.509Z,87.2852
2023-04-18T01:27:42.654Z,87.1170
2023-04-18T01:28:50.602Z,87.3155
2023-04-18T01:29:58.712Z,87.1988
2023-04-18T01:31:06.788Z,86.9426
2023-04-18T01:32:14.997Z,86.8050
2023-04-18T01:33:23.033Z,86.8559
2023-04-18T01:34:30.838Z,87.2128
2023-04-18T01:35:39.024Z,87.7616
2023-04-18T01:36:47.087Z,86.7781
2023-04-18T01:37:55.190Z,87.0113
2023-04-18T01:39:03.254Z,86.6590
2023-04-18T01:40:11.152Z,86.4482
2023-04-18T01:41:19.439Z,86.6819
2023-04-18T01:42:27.410Z,86.3809
2023-04-18T01:43:35.446Z,87.0562
2023-04-18T01:44:43.588Z,88.1065
2023-04-18T01:45:51.442Z,88.2692
2023-04-18T01:46:59.682Z,87.4147
2023-04-18T01:48:07.755Z,87.9438
2023-04-18T01:49:15.791Z,87.7694
2023-04-18T01:50:23.867Z,87.9965
2023-04-18T01:51:32.047Z,88.9043
2023-04-18T01:52:39.974Z,88.6890
2023-04-18T01:53:47.933Z,88.4060
2023-04-18T01:54:56.238Z,89.6486
2023-04-18T01:56:04.189Z,89.6348
2023-04-18T01:57:12.124Z,90.3069
2023-04-18T01:58:20.311Z,89.8962
2023-04-18T01:59:28.253Z,88.8923
2023-04-18T02:00:36.482Z,88.9236
2023-04-18T02:01:44.682Z,88.8462
2023-04-18T02:02:52.569Z,87.7148
2023-04-18T02:04:00.755Z,87.9950
2023-04-18T02:05:08.576Z,87.5692
2023-04-18T02:06:16.771Z,88.1009
2023-04-18T02:07:24.868Z,87.3159
2023-04-18T02:08:32.895Z,87.1785
2023-04-18T02:09:40.979Z,88.3184
2023-04-18T02:10:48.911Z,88.4458
2023-04-18T02:11:57.147Z,88.8407
2023-04-18T02:13:05.288Z,89.7568
2023-04-18T02:14:13.403Z,88.0207
2023-04-18T02:15:21.368Z,89.0647
2023-04-18T02:16:29.394Z,89.9575
2023-04-18T02:17:37.518Z,90.5658
2023-04-18T02:18:45.501Z,89.1961
2023-04-18T02:19:53.593Z,88.4842
2023-04-18T02:21:01.634Z,88.4538
2023-04-18T02:22:09.688Z,88.8137
2023-04-18T02:23:17.843Z,88.5848
2023-04-18T02:24:25.825Z,88.7802
2023-04-18T02:25:33.901Z,89.5676
2023-04-18T02:26:42.001Z,89.2138
2023-04-18T02:27:50.051Z,89.2289
2023-04-18T02:28:58.266Z,89.9354
2023-04-18T02:30:06.302Z,90.0085
2023-04-18T02:31:14.119Z,88.6385
2023-04-18T02:32:22.346Z,89.8958
2023-04-18T02:33:30.406Z,90.0751
2023-04-18T02:34:38.528Z,88.6015
2023-04-18T02:35:46.500Z,88.1574
2023-04-18T02:36:54.439Z,88.0246
2023-04-18T02:38:02.777Z,88.4233
2023-04-18T02:39:10.876Z,88.7196
2023-04-18T02:40:18.660Z,88.4892
2023-04-18T02:41:26.836Z,87.8794
2023-04-18T02:42:34.925Z,88.9889
2023-04-18T02:43:42.963Z,89.8993
2023-04-18T02:44:51.019Z,89.1762
2023-04-18T02:45:59.161Z,88.5254
2023-04-18T02:47:07.218Z,88.6400
2023-04-18T02:48:15.261Z,88.9653
2023-04-18T02:49:23.389Z,90.1552
2023-04-18T02:50:31.296Z,89.1838
2023-04-18T02:51:39.413Z,88.2058
2023-04-18T02:52:47.436Z,89.3281
2023-04-18T02:53:55.388Z,88.5991
2023-04-18T02:55:03.578Z,88.4002
2023-04-18T02:56:11.827Z,89.4190
2023-04-18T02:57:19.599Z,89.4827
2023-04-18T02:58:27.782Z,90.0131
2023-04-18T02:59:35.952Z,90.5169
2023-04-18T03:00:43.949Z,90.8104
2023-04-18T03:01:51.943Z,89.7804
2023-04-18T03:03:00.216Z,90.2536
2023-04-18T03:04:08.054Z,90.2102
2023-04-18T03:05:16.128Z,89.1959
2023-04-18T03:06:24.207Z,89.8184
2023-04-18T03:07:32.237Z,90.0248
2023-04-18T03:08:40.228Z,88.8789
2023-04-18T03:09:48.396Z,89.0165
2023-04-18T03:10:56.514Z,88.5929
2023-04-18T03:12:04.582Z,88.9401
2023-04-18T03:13:12.597Z,89.4136
2023-04-18T03:14:20.702Z,89.2677
2023-04-18T03:15:28.676Z,89.1971
2023-04-18T03:16:36.755Z,88.5155
2023-04-18T03:17:44.707Z,90.0098
2023-04-18T03:18:53.015Z,90.2693
2023-04-18T03:20:00.862Z,89.4486
2023-04-18T03:21:09.027Z,89.7570
2023-04-18T03:22:17.059Z,89.8542
2023-04-18T03:23:25.092Z,89.2187
2023-04-18T03:24:33.174Z,88.8776
2023-04-18T03:25:41.291Z,89.7886
2023-04-18T03:26:49.334Z,89.0641
2023-04-18T03:27:57.405Z,88.9409
2023-04-18T03:29:05.306Z,89.1587
2023-04-18T03:30:13.534Z,89.5369
2023-04-18T03:31:21.625Z,89.3913
2023-04-18T03:32:29.664Z,89.4559
2023-04-18T03:33:37.684Z,89.2501
2023-04-18T03:34:45.856Z,88.5842
2023-04-18T03:35:53.828Z,87.8825
2023-04-18T03:37:01.844Z,88.5202
2023-04-18T03:38:09.974Z,88.0011
2023-04-18T03:39:18.013Z,87.3381
2023-04-18T03:40:26.104Z,86.7166
2023-04-18T03:41:34.137Z,86.8108
2023-04-18T03:42:42.259Z,87.0726
2023-04-18T03:43:50.227Z,88.2921
2023-04-18T03:44:58.388Z,88.0673
2023-04-18T03:46:06.563Z,88.7432
2023-04-18T03:47:14.459Z,88.8611
2023-04-18T03:48:22.427Z,88.8561
2023-04-18T03:49:30.647Z,89.0226
2023-04-18T03:50:38.672Z,89.5174
2023-04-18T03:51:46.692Z,89.6493
2023-04-18T03:52:54.797Z,88.1662
2023-04-18T03:54:02.740Z,87.6457
2023-04-18T03:55:11.156Z,87.9087
2023-04-18T03:56:18.936Z,88.1484
2023-04-18T03:57:27.234Z,88.2977
2023-04-18T03:58:35.113Z,88.9166
2023-04-18T03:59:43.212Z,88.1145
2023-04-18T04:00:51.280Z,87.9397
2023-04-18T04:01:59.353Z,88.5421
2023-04-18T04:03:07.527Z,89.1698
2023-04-18T04:04:15.777Z,88.9791
2023-04-18T04:05:23.546Z,88.9925
2023-04-18T04:06:31.499Z,88.0736
2023-04-18T04:07:39.531Z,87.9499
2023-04-18T04:08:47.608Z,88.1805
2023-04-18T04:09:55.680Z,87.9603
2023-04-18T04:11:03.829Z,87.7821
2023-04-18T04:12:11.872Z,88.3729
2023-04-18T04:13:20.009Z,88.5797
2023-04-18T04:14:27.859Z,88.7211
2023-04-18T04:15:36.029Z,88.9077
2023-04-18T04:16:44.148Z,88.6101
2023-04-18T04:17:52.182Z,88.2441
2023-04-18T04:19:00.190Z,88.7731
2023-04-18T04:20:08.230Z,88.6105
2023-04-18T04:21:16.300Z,88.4778
2023-04-18T04:22:24.435Z,89.7567
2023-04-18T04:23:32.429Z,89.8649
2023-04-18T04:24:40.614Z,89.8371
2023-04-18T04:25:48.537Z,90.3647
2023-04-18T04:26:56.653Z,90.3232
2023-04-18T04:28:04.750Z,89.6560
2023-04-18T04:29:12.752Z,89.3400
2023-04-18T04:30:20.803Z,89.6203
2023-04-18T04:31:28.883Z,90.3701
2023-04-18T04:32:37.021Z,89.9606
2023-04-18T04:33:45.046Z,88.1712
2023-04-18T04:34:53.042Z,87.6520
2023-04-18T04:36:01.256Z,87.8099
2023-04-18T04:37:09.188Z,87.2990
2023-04-18T04:38:17.291Z,87.0807
2023-04-18T04:39:25.396Z,88.3523
2023-04-18T04:40:33.380Z,89.4414
2023-04-18T04:41:41.494Z,89.4798
2023-04-18T04:42:49.494Z,89.0641
2023-04-18T04:43:57.527Z,90.0802
2023-04-18T04:45:05.779Z,88.2139
2023-04-18T04:46:13.718Z,87.3470
2023-04-18T04:47:21.746Z,87.0594
2023-04-18T04:48:29.800Z,87.0160
2023-04-18T04:49:37.938Z,86.9012
2023-04-18T04:50:46.035Z,86.6839
2023-04-18T04:51:53.924Z,87.5616
2023-04-18T04:53:02.104Z,88.9569
2023-04-18T04:54:10.223Z,89.8373
2023-04-18T04:55:18.174Z,89.2115
2023-04-18T04:56:26.273Z,89.1559
2023-04-18T04:57:34.336Z,89.8348
2023-04-18T04:58:42.391Z,89.9661
2023-04-18T04:59:50.438Z,88.9655
2023-04-18T05:00:58.462Z,88.5224
2023-04-18T05:02:06.669Z,88.7357
2023-04-18T05:03:14.933Z,87.4060
2023-04-18T05:04:22.843Z,88.2446
2023-04-18T05:05:30.744Z,88.6783
2023-04-18T05:06:40.306Z,89.1155
2023-04-18T05:07:46.946Z,88.1984
2023-04-18T05:08:55.029Z,88.6779
2023-04-18T05:10:03.135Z,89.3992
2023-04-18T05:11:11.139Z,88.8998
2023-04-18T05:12:19.205Z,88.7103
2023-04-18T05:13:27.419Z,87.8823
2023-04-18T05:14:35.285Z,88.3852
2023-04-18T05:15:43.387Z,89.1682
2023-04-18T05:16:51.479Z,88.1676
2023-04-18T05:17:59.533Z,88.7563
2023-04-18T05:19:07.615Z,87.9664
2023-04-18T05:20:15.576Z,88.0764
2023-04-18T05:21:23.682Z,87.9938
2023-04-18T05:22:31.748Z,87.8480
2023-04-18T05:23:39.846Z,87.4432
2023-04-18T05:24:48.054Z,87.1605
2023-04-18T05:25:56.176Z,86.3113
2023-04-18T05:27:04.021Z,85.9723
2023-04-18T05:28:12.069Z,85.6195
2023-04-18T05:29:20.123Z,86.2037
2023-04-18T05:30:28.208Z,86.3824
2023-04-18T05:31:36.313Z,87.2881
2023-04-18T05:32:44.366Z,88.0421
2023-04-18T05:33:52.483Z,87.8419
2023-04-18T05:35:00.492Z,88.0326
2023-04-18T05:36:08.535Z,88.0828
2023-04-18T05:37:16.566Z,87.6393
2023-04-18T05:38:24.629Z,87.9550
2023-04-18T05:39:32.702Z,88.3471
2023-04-18T05:40:40.762Z,87.4346
2023-04-18T05:41:48.849Z,87.8202
2023-04-18T05:42:56.892Z,88.6787
2023-04-18T05:44:05.929Z,89.8780
2023-04-18T05:45:13.013Z,89.3800
2023-04-18T05:46:21.077Z,88.0538
2023-04-18T05:47:29.228Z,88.2615
2023-04-18T05:48:37.226Z,88.5991
2023-04-18T05:49:45.229Z,87.6470
2023-04-18T05:50:53.332Z,87.6776
2023-04-18T05:52:01.384Z,87.5650
2023-04-18T05:53:09.532Z,87.4378
2023-04-18T05:54:17.606Z,88.5096
2023-04-18T05:55:25.546Z,88.0848
2023-04-18T05:56:33.679Z,88.1971
2023-04-18T05:57:41.776Z,88.1156
2023-04-18T05:58:49.820Z,87.7952
2023-04-18T05:59:57.868Z,88.0657
2023-04-18T06:01:05.848Z,88.5456
2023-04-18T06:02:14.039Z,88.6891
2023-04-18T06:03:22.280Z,88.5688
2023-04-18T06:04:30.412Z,88.5631
2023-04-18T06:05:38.356Z,87.7443
2023-04-18T06:06:46.248Z,87.0296
2023-04-18T06:07:54.305Z,87.0508
2023-04-18T06:09:02.444Z,88.2411
2023-04-18T06:10:10.459Z,88.8169
2023-04-18T06:11:18.424Z,89.2966
2023-04-18T06:12:26.485Z,89.4069
2023-04-18T06:13:34.631Z,89.7903
2023-04-18T06:14:42.729Z,89.1206
2023-04-18T06:15:50.726Z,87.6371
2023-04-18T06:16:58.825Z,87.5336
2023-04-18T06:18:06.875Z,88.3121
2023-04-18T06:19:14.969Z,88.0946
2023-04-18T06:20:23.114Z,87.5753
2023-04-18T06:21:31.076Z,87.4723
2023-04-18T06:22:39.154Z,87.5568
2023-04-18T06:23:47.335Z,87.5473
2023-04-18T06:24:55.280Z,87.1429
2023-04-18T06:26:03.381Z,87.0807
2023-04-18T06:27:20.731Z,87.1103
2023-04-18T06:28:24.358Z,86.5223
2023-04-18T06:29:32.346Z,86.6268
2023-04-18T06:30:40.469Z,86.5808
2023-04-18T06:31:48.648Z,85.8172
2023-04-18T06:32:56.584Z,85.6385
2023-04-18T06:34:04.671Z,87.2898
2023-04-18T06:35:12.840Z,87.1747
2023-04-18T06:36:20.810Z,87.2209
2023-04-18T06:37:28.817Z,86.6409
2023-04-18T06:38:36.895Z,85.8477
2023-04-18T06:39:45.216Z,86.9208
2023-04-18T06:40:53.053Z,87.3515
2023-04-18T06:42:01.142Z,87.2756
2023-04-18T06:43:09.232Z,88.2190
2023-04-18T06:44:17.307Z,87.2659
2023-04-18T06:45:25.403Z,86.8727
2023-04-18T06:46:33.391Z,86.8223
2023-04-18T06:47:41.414Z,87.0086
2023-04-18T06:48:51.047Z,86.4847
2023-04-18T06:49:57.571Z,86.0522
2023-04-18T06:51:05.695Z,85.9437
2023-04-18T06:52:13.734Z,86.5989
2023-04-18T06:53:21.671Z,87.6618
2023-04-18T06:54:29.844Z,86.4778
2023-04-18T06:55:37.997Z,86.4260
2023-04-18T06:56:45.976Z,86.9706
2023-04-18T06:57:54.025Z,86.6549
2023-04-18T06:59:02.140Z,86.7696
2023-04-18T07:00:10.098Z,86.6283
2023-04-18T07:01:18.373Z,86.9132
2023-04-18T07:02:26.356Z,86.9038
2023-04-18T07:03:34.391Z,87.1431
2023-04-18T07:04:42.366Z,86.1799
2023-04-18T07:05:50.502Z,86.0223
2023-04-18T07:06:58.561Z,86.1696
2023-04-18T07:08:06.570Z,86.0662
2023-04-18T07:09:14.630Z,86.6210
2023-04-18T07:10:22.592Z,87.2238
2023-04-18T07:11:30.790Z,86.7843
2023-04-18T07:12:38.734Z,86.9960
2023-04-18T07:13:46.785Z,86.7939
2023-04-18T07:14:54.907Z,86.4379
2023-04-18T07:16:02.953Z,86.4931
2023-04-18T07:17:11.204Z,85.8339
2023-04-18T07:18:30.262Z,85.7181
2023-04-18T07:19:32.054Z,86.4226
2023-04-18T07:20:40.068Z,86.2520
2023-04-18T07:21:48.204Z,85.4314
2023-04-18T07:22:56.246Z,84.2608
2023-04-18T07:24:04.264Z,84.3380
2023-04-18T07:25:12.222Z,84.1645
2023-04-18T07:26:20.379Z,85.3630
2023-04-18T07:27:28.463Z,85.2816
2023-04-18T07:28:36.532Z,87.0324
2023-04-18T07:29:44.570Z,87.4505
2023-04-18T07:30:52.583Z,87.5760
2023-04-18T07:32:00.687Z,87.9529
2023-04-18T07:33:08.814Z,86.8089
2023-04-18T07:34:16.836Z,86.7993
2023-04-18T07:35:24.856Z,86.9192
2023-04-18T07:36:32.860Z,86.0865
2023-04-18T07:37:41.115Z,85.8997
2023-04-18T07:38:49.065Z,85.7462
2023-04-18T07:39:57.143Z,86.5610
2023-04-18T07:41:05.180Z,86.4712
2023-04-18T07:42:13.190Z,86.3398
2023-04-18T07:43:21.312Z,85.4205
2023-04-18T07:44:29.382Z,83.8714
2023-04-18T07:45:37.494Z,83.9418
2023-04-18T07:46:45.604Z,83.8851
2023-04-18T07:47:53.557Z,84.6161
2023-04-18T07:49:01.646Z,83.3757
2023-04-18T07:50:09.704Z,83.4964
2023-04-18T07:51:17.730Z,84.2375
2023-04-18T07:52:25.840Z,84.9693
2023-04-18T07:53:33.820Z,84.7540
2023-04-18T07:54:41.923Z,85.2330
2023-04-18T07:55:50.330Z,84.6624
2023-04-18T07:56:58.169Z,84.3500
2023-04-18T07:58:06.148Z,84.1539
2023-04-18T07:59:14.325Z,83.7152
2023-04-18T08:00:22.183Z,84.6002
2023-04-18T08:01:30.313Z,85.7333
2023-04-18T08:02:38.572Z,84.2772
2023-04-18T08:03:46.577Z,83.7426
2023-04-18T08:04:54.980Z,82.9677
2023-04-18T08:06:02.585Z,84.1201
2023-04-18T08:07:10.676Z,84.3827
2023-04-18T08:08:18.853Z,83.4687
2023-04-18T08:09:26.729Z,83.2265
2023-04-18T08:10:34.720Z,82.8206
2023-04-18T08:11:42.867Z,81.8402
2023-04-18T08:12:50.942Z,81.5245
2023-04-18T08:13:59.036Z,81.5238
2023-04-18T08:15:07.076Z,80.2191
2023-04-18T08:16:17.359Z,79.3246
2023-04-18T08:17:23.207Z,80.8608
2023-04-18T08:18:31.248Z,80.9297
2023-04-18T08:19:39.205Z,80.2042
2023-04-18T08:20:47.517Z,80.3427
2023-04-18T08:21:55.442Z,80.6462
2023-04-18T08:23:08.642Z,79.0780
2023-04-18T08:24:16.376Z,80.8975
2023-04-18T08:25:24.515Z,81.4608
2023-04-18T08:26:32.554Z,82.0402
2023-04-18T08:27:40.678Z,81.5329
2023-04-18T08:28:48.554Z,81.5585
2023-04-18T08:29:56.810Z,81.6249
2023-04-18T08:31:04.743Z,81.3895
2023-04-18T08:32:12.901Z,80.8576
2023-04-18T08:33:20.901Z,81.4368
2023-04-18T08:34:28.935Z,82.3193
2023-04-18T08:35:36.957Z,83.5916
2023-04-18T08:36:45.046Z,83.8133
2023-04-18T08:37:53.019Z,83.8461
2023-04-18T08:39:01.203Z,83.9960
2023-04-18T08:40:09.163Z,83.6073
2023-04-18T08:41:17.415Z,82.0883
2023-04-18T08:42:25.396Z,83.4593
2023-04-18T08:43:33.326Z,84.2441
2023-04-18T08:44:41.475Z,83.1576
2023-04-18T08:45:49.434Z,82.0656
2023-04-18T08:46:57.640Z,82.5166
2023-04-18T08:48:05.586Z,83.7412
2023-04-18T08:49:13.798Z,82.3381
2023-04-18T08:50:21.823Z,81.4213
2023-04-18T08:51:29.770Z,81.6472
2023-04-18T08:52:38.020Z,82.2761
2023-04-18T08:53:46.030Z,81.5301
2023-04-18T08:54:53.969Z,80.2951
2023-04-18T08:56:02.022Z,79.8376
2023-04-18T08:57:10.029Z,78.8050
2023-04-18T08:58:18.087Z,78.6619
2023-04-18T08:59:26.185Z,78.5959
2023-04-18T09:00:34.160Z,78.9539
2023-04-18T09:01:42.313Z,79.6224
2023-04-18T09:02:50.437Z,78.6768
2023-04-18T09:03:58.504Z,78.0490
2023-04-18T09:05:06.466Z,78.0030
2023-04-18T09:06:14.442Z,79.0088
2023-04-18T09:07:22.613Z,79.7728
2023-04-18T09:08:30.747Z,78.8999
2023-04-18T09:09:38.690Z,79.7187
2023-04-18T09:10:46.913Z,79.8048
2023-04-18T09:11:54.716Z,79.4496
2023-04-18T09:13:02.890Z,78.7139
2023-04-18T09:14:11.240Z,78.1257
2023-04-18T09:15:19.003Z,78.5927
2023-04-18T09:16:27.125Z,78.8978
2023-04-18T09:17:35.118Z,78.0596
2023-04-18T09:18:43.228Z,78.4846
2023-04-18T09:19:51.348Z,78.3308
2023-04-18T09:20:59.440Z,77.9389
2023-04-18T09:22:07.397Z,78.8054
2023-04-18T09:23:15.399Z,79.3722
2023-04-18T09:24:23.688Z,80.0521
2023-04-18T09:25:31.717Z,79.6080
2023-04-18T09:26:39.623Z,79.9119
2023-04-18T09:27:47.718Z,78.8706
2023-04-18T09:28:55.674Z,78.1722
2023-04-18T09:30:03.876Z,77.7476
2023-04-18T09:31:12.188Z,77.3097
2023-04-18T09:32:19.992Z,77.9300
2023-04-18T09:33:28.117Z,77.5506
2023-04-18T09:34:35.965Z,76.4880
2023-04-18T09:35:44.177Z,75.9563
2023-04-18T09:36:52.292Z,75.9767
2023-04-18T09:38:00.349Z,76.2228
2023-04-18T09:39:08.297Z,77.6820
2023-04-18T09:40:16.264Z,76.8088
2023-04-18T09:41:24.403Z,76.7206
2023-04-18T09:42:32.486Z,78.0851
2023-04-18T09:43:40.404Z,78.8113
2023-04-18T09:44:48.486Z,77.1814
2023-04-18T09:45:56.617Z,74.9042
2023-04-18T09:47:04.715Z,75.8866
2023-04-18T09:48:12.781Z,75.6535
2023-04-18T09:49:20.713Z,75.6727
2023-04-18T09:50:28.838Z,76.1614
2023-04-18T09:51:36.949Z,77.4393
2023-04-18T09:52:45.301Z,77.6787
2023-04-18T09:53:53.037Z,78.4236
2023-04-18T09:55:01.210Z,78.4731
2023-04-18T09:56:09.197Z,77.9380
2023-04-18T09:57:17.186Z,78.1275
2023-04-18T09:58:25.205Z,77.8295
2023-04-18T09:59:33.191Z,77.1455
2023-04-18T10:00:41.376Z,76.6074
2023-04-18T10:01:49.482Z,77.0391
2023-04-18T10:02:57.502Z,75.9545
2023-04-18T10:04:05.552Z,75.4333
2023-04-18T10:05:13.803Z,75.3646
2023-04-18T10:06:21.559Z,74.6726
2023-04-18T10:07:29.702Z,74.5437
2023-04-18T10:08:37.762Z,74.2195
2023-04-18T10:09:45.781Z,74.6353
2023-04-18T10:10:53.917Z,75.3625
2023-04-18T10:12:02.073Z,74.4675
2023-04-18T10:13:09.995Z,75.3556
2023-04-18T10:14:18.259Z,74.4879
2023-04-18T10:15:26.047Z,73.9380
2023-04-18T10:16:35.654Z,73.5218
2023-04-18T10:17:52.551Z,71.8997
2023-04-18T10:18:55.157Z,73.0222
2023-04-18T10:20:03.180Z,73.7470
2023-04-18T10:21:11.186Z,73.0844
2023-04-18T10:22:19.348Z,72.1193
2023-04-18T10:23:28.174Z,73.2946
2023-04-18T10:24:35.344Z,70.3416
2023-04-18T10:25:43.475Z,72.2701
2023-04-18T10:26:51.447Z,68.7017
2023-04-18T10:27:59.622Z,66.3206
2023-04-18T10:29:07.644Z,66.5032
2023-04-18T10:30:15.632Z,65.4823
2023-04-18T10:31:23.864Z,63.5418
2023-04-18T10:32:31.801Z,62.2284
2023-04-18T10:33:42.442Z,63.4773
2023-04-18T10:34:52.807Z,62.7196
2023-04-18T10:36:01.037Z,65.2001
2023-04-18T10:37:08.938Z,67.1179
2023-04-18T10:38:17.006Z,67.4208
2023-04-18T10:39:25.059Z,68.5872
2023-04-18T10:40:33.078Z,68.0856
2023-04-18T10:41:41.304Z,67.6448
2023-04-18T10:42:49.217Z,68.0830
2023-04-18T10:43:57.239Z,69.6305
2023-04-18T10:45:05.605Z,69.6107
2023-04-18T10:46:24.270Z,71.3809
2023-04-18T10:47:26.331Z,68.5961
2023-04-18T10:48:38.459Z,66.1120
2023-04-18T10:49:47.384Z,65.5726
2023-04-18T10:50:55.240Z,64.6184
2023-04-18T10:52:03.362Z,61.4150
2023-04-18T10:53:11.407Z,59.7733
2023-04-18T10:54:19.545Z,59.9643
2023-04-18T10:55:27.592Z,59.8738
2023-04-18T10:56:35.578Z,58.9885
2023-04-18T10:57:43.696Z,59.2833
2023-04-18T10:58:51.741Z,64.6038
2023-04-18T10:59:59.693Z,66.5133
2023-04-18T11:01:07.963Z,65.5343
2023-04-18T11:02:15.786Z,62.8875
2023-04-18T11:03:23.986Z,61.8761
2023-04-18T11:04:32.011Z,60.0959
2023-04-18T11:05:40.063Z,59.0262
2023-04-18T11:06:48.130Z,60.4757
2023-04-18T11:07:56.090Z,63.6932
2023-04-18T11:09:04.350Z,65.3390
2023-04-18T11:10:12.335Z,68.0593
2023-04-18T11:11:20.368Z,68.1596
2023-04-18T11:12:28.477Z,69.7425
2023-04-18T11:13:36.341Z,69.7626
2023-04-18T11:14:44.497Z,69.1418
2023-04-18T11:15:52.645Z,70.5820
2023-04-18T11:17:00.575Z,70.2236
2023-04-18T11:18:08.718Z,70.5325
2023-04-18T11:19:16.920Z,70.8287
2023-04-18T11:20:24.772Z,70.6922
2023-04-18T11:21:32.883Z,69.7013
2023-04-18T11:22:40.828Z,67.8918
2023-04-18T11:23:49.011Z,66.3180
2023-04-18T11:24:57.044Z,68.1408
2023-04-18T11:26:05.064Z,69.1210
2023-04-18T11:27:13.091Z,69.8600
2023-04-18T11:28:21.207Z,71.7124
2023-04-18T11:29:29.234Z,71.8384
2023-04-18T11:30:37.213Z,72.5881
2023-04-18T11:31:45.535Z,71.3576
2023-04-18T11:32:53.396Z,71.2349
2023-04-18T11:34:01.352Z,71.3743
2023-04-18T11:35:09.544Z,71.8385
2023-04-18T11:36:17.570Z,72.2039
2023-04-18T11:37:25.626Z,71.0917
2023-04-18T11:38:33.636Z,72.1854
2023-04-18T11:39:41.682Z,71.3896
2023-04-18T11:40:49.920Z,71.3272
2023-04-18T11:41:57.737Z,69.7402
2023-04-18T11:43:05.857Z,69.8816
2023-04-18T11:44:13.954Z,70.8896
2023-04-18T11:45:22.076Z,70.5128
2023-04-18T11:46:30.184Z,67.1510
2023-04-18T11:47:38.199Z,66.2525
2023-04-18T11:48:46.070Z,67.1770
2023-04-18T11:49:56.500Z,63.9502
2023-04-18T11:51:07.365Z,61.8846
2023-04-18T11:52:15.207Z,60.2156
2023-04-18T11:53:23.154Z,58.1031
2023-04-18T11:54:31.266Z,59.6027
2023-04-18T11:55:39.342Z,58.4204
2023-04-18T11:56:47.372Z,61.3737
2023-04-18T11:57:55.543Z,58.1098
2023-04-18T11:59:03.630Z,56.4100
2023-04-18T12:00:11.519Z,57.3691
2023-04-18T12:01:19.720Z,57.4156
2023-04-18T12:02:27.857Z,59.6005
2023-04-18T12:03:35.950Z,61.9838
2023-04-18T12:04:44.088Z,63.9516
2023-04-18T12:05:51.993Z,64.7896
2023-04-18T12:06:59.930Z,64.4342
2023-04-18T12:08:08.164Z,64.3238
2023-04-18T12:09:15.970Z,63.3072
2023-04-18T12:10:24.074Z,62.5389
2023-04-18T12:11:32.182Z,62.6129
2023-04-18T12:12:40.202Z,61.0292
2023-04-18T12:13:48.277Z,61.3946
2023-04-18T12:14:56.329Z,62.3681
2023-04-18T12:16:04.389Z,61.9592
2023-04-18T12:17:12.511Z,61.1964
2023-04-18T12:18:20.483Z,62.9178
2023-04-18T12:19:28.613Z,62.9684
2023-04-18T12:20:36.601Z,62.3040
2023-04-18T12:21:44.631Z,62.8836
2023-04-18T12:22:52.651Z,62.8504
2023-04-18T12:24:00.758Z,63.1095
2023-04-18T12:25:08.883Z,63.9874
2023-04-18T12:26:16.835Z,62.0538
2023-04-18T12:27:24.953Z,61.0833
2023-04-18T12:28:33.031Z,60.9168
2023-04-18T12:29:41.018Z,57.8415
2023-04-18T12:30:49.137Z,56.0256
2023-04-18T12:31:57.187Z,52.0481
2023-04-18T12:33:05.265Z,50.8311
2023-04-18T12:34:13.433Z,48.1287
2023-04-18T12:35:21.250Z,48.9976
2023-04-18T12:36:29.423Z,47.6235
2023-04-18T12:37:37.526Z,49.0156
2023-04-18T12:38:45.481Z,50.1799
2023-04-18T12:39:53.601Z,50.7215
2023-04-18T12:41:01.617Z,47.4368
2023-04-18T12:42:09.697Z,50.7752
2023-04-18T12:43:17.659Z,50.0414
2023-04-18T12:44:25.758Z,51.7243
2023-04-18T12:45:33.735Z,55.0297
2023-04-18T12:46:41.869Z,56.6361
2023-04-18T12:47:50.016Z,58.2138
2023-04-18T12:48:57.973Z,58.0563
2023-04-18T12:50:06.103Z,56.8722
2023-04-18T12:51:14.093Z,56.5259
2023-04-18T12:52:22.071Z,56.7455
2023-04-18T12:53:30.277Z,56.2308
2023-04-18T12:54:38.286Z,57.6926
2023-04-18T12:55:46.321Z,58.9514
2023-04-18T12:56:54.409Z,56.5890
2023-04-18T12:58:02.572Z,55.2992
2023-04-18T12:59:10.565Z,53.4059
2023-04-18T13:00:18.504Z,51.5512
2023-04-18T13:01:26.766Z,51.5419
2023-04-18T13:02:34.845Z,51.0944
2023-04-18T13:03:42.770Z,50.2345
2023-04-18T13:04:50.953Z,51.8471
2023-04-18T13:05:58.794Z,52.7217
2023-04-18T13:07:06.920Z,53.6346
2023-04-18T13:08:17.677Z,51.2296
2023-04-18T13:09:27.918Z,50.5324
2023-04-18T13:10:36.163Z,49.4429
2023-04-18T13:11:43.958Z,50.6268
2023-04-18T13:12:52.040Z,48.6115
2023-04-18T13:14:00.168Z,50.0312
2023-04-18T13:15:08.176Z,52.0583
2023-04-18T13:16:16.294Z,53.3555
2023-04-18T13:17:24.289Z,55.4537
2023-04-18T13:18:32.294Z,54.3868
2023-04-18T13:19:40.463Z,53.5495
2023-04-18T13:20:48.544Z,53.4715
2023-04-18T13:21:56.688Z,52.4213
2023-04-18T13:23:04.694Z,51.6948
2023-04-18T13:24:12.621Z,47.7139
2023-04-18T13:25:20.726Z,47.7982
2023-04-18T13:26:28.836Z,47.2117
2023-04-18T13:27:37.358Z,47.2386
2023-04-18T13:28:44.891Z,48.5540
2023-04-18T13:29:52.979Z,48.9159
2023-04-18T13:31:01.200Z,47.9010
2023-04-18T13:32:09.301Z,47.9131
2023-04-18T13:33:17.251Z,51.6073
2023-04-18T13:34:25.399Z,49.1649
2023-04-18T13:35:33.325Z,47.0485
2023-04-18T13:36:41.402Z,46.5400
2023-04-18T13:37:49.552Z,49.0559
2023-04-18T13:38:57.523Z,48.5310
2023-04-18T13:40:05.589Z,46.7832
2023-04-18T13:41:13.911Z,47.2977
2023-04-18T13:42:21.701Z,44.8156
2023-04-18T13:43:29.789Z,44.5278